Time;durP1;ratioP1;P1;durP2;ratioP2;P2;SDS_P1;SDS_P2;PMS_P1;PMS_P2;Temp;Humidity;BMP_temperature;BMP_pressure;BME280_temperature;BME280_humidity;BME280_pressure;Samples;Min_cycle;Max_cycle;Signal;HPM_P1;HPM_P2
2023/01/14 00:02:14;;;;;;;4.03;2.00;;;6.80;99.90;;;;;;4952071;28;20184;-74
2023/01/14 00:04:41;;;;;;;3.20;2.07;;;6.60;99.90;;;;;;4953082;28;20217;-74
2023/01/14 00:07:07;;;;;;;6.00;2.47;;;6.50;99.90;;;;;;4951061;28;20227;-74
2023/01/14 00:09:32;;;;;;;3.67;2.60;;;6.40;99.90;;;;;;4952170;28;20216;-74
2023/01/14 00:11:58;;;;;;;2.40;2.10;;;6.70;99.90;;;;;;4951486;28;20623;-73
2023/01/14 00:14:28;;;;;;;3.57;1.60;;;6.60;99.90;;;;;;4951682;28;20264;-72
2023/01/14 00:16:54;;;;;;;4.35;2.50;;;6.80;99.90;;;;;;4949679;28;20321;-72
2023/01/14 00:19:21;;;;;;;4.43;2.83;;;6.30;99.90;;;;;;4949493;28;20275;-73
2023/01/14 00:21:47;;;;;;;6.80;2.70;;;6.50;99.90;;;;;;4950705;28;20207;-73
2023/01/14 00:24:14;;;;;;;6.32;2.70;;;6.20;99.90;;;;;;4950641;28;20280;-74
2023/01/14 00:26:41;;;;;;;3.65;2.13;;;6.20;99.90;;;;;;4954374;28;20243;-73
2023/01/14 00:29:13;;;;;;;4.03;2.33;;;6.10;99.90;;;;;;4951619;28;20198;-74
2023/01/14 00:31:38;;;;;;;6.20;3.05;;;5.90;99.90;;;;;;4951027;28;20293;-73
2023/01/14 00:34:04;;;;;;;5.13;2.47;;;5.90;99.90;;;;;;4951262;28;20208;-74
2023/01/14 00:36:29;;;;;;;5.90;2.73;;;5.90;99.90;;;;;;4934728;28;20246;-73
2023/01/14 00:38:55;;;;;;;6.10;2.87;;;5.70;99.90;;;;;;4949840;28;20680;-73
2023/01/14 00:41:24;;;;;;;4.00;2.73;;;6.20;99.90;;;;;;4953808;28;20206;-73
2023/01/14 00:43:55;;;;;;;4.45;2.40;;;5.90;99.90;;;;;;4952520;28;20459;-73
2023/01/14 00:46:27;;;;;;;6.40;2.80;;;5.70;99.90;;;;;;4949072;28;20298;-72
2023/01/14 00:48:53;;;;;;;6.20;3.05;;;5.90;99.90;;;;;;4949739;28;20200;-73
2023/01/14 00:51:20;;;;;;;5.50;2.72;;;5.90;99.90;;;;;;4949340;28;20192;-73
2023/01/14 00:53:46;;;;;;;6.00;2.55;;;6.10;99.90;;;;;;4954203;28;20216;-74
2023/01/14 00:56:13;;;;;;;4.43;3.15;;;5.80;99.90;;;;;;4952160;28;20217;-73
2023/01/14 00:58:39;;;;;;;6.95;2.58;;;5.60;99.90;;;;;;4951258;28;20211;-74
2023/01/14 01:01:05;;;;;;;5.77;2.87;;;6.00;99.90;;;;;;4954194;28;20217;-74
2023/01/14 01:03:31;;;;;;;6.33;2.70;;;5.40;99.90;;;;;;4953185;28;20238;-74
2023/01/14 01:05:57;;;;;;;4.82;3.72;;;5.60;99.90;;;;;;4949366;28;20506;-74
2023/01/14 01:08:23;;;;;;;5.50;2.87;;;5.50;99.90;;;;;;4950409;28;20199;-74
2023/01/14 01:10:53;;;;;;;4.00;2.60;;;6.00;99.90;;;;;;4951736;28;20191;-74
2023/01/14 01:13:20;;;;;;;5.30;3.03;;;5.50;99.90;;;;;;4952219;28;20301;-74
2023/01/14 01:15:45;;;;;;;5.22;2.47;;;5.40;99.90;;;;;;4949038;28;20215;-74
2023/01/14 01:18:12;;;;;;;4.37;2.40;;;5.50;99.90;;;;;;4934768;29;20234;-73
2023/01/14 01:20:38;;;;;;;4.57;2.10;;;5.20;99.90;;;;;;4953375;28;20196;-73
2023/01/14 01:23:08;;;;;;;6.00;2.23;;;5.40;99.90;;;;;;4953266;28;20211;-74
2023/01/14 01:25:34;;;;;;;6.63;2.40;;;5.50;99.90;;;;;;4949551;28;20434;-73
2023/01/14 01:27:59;;;;;;;4.83;2.17;;;5.20;99.90;;;;;;4953140;28;20251;-74
2023/01/14 01:30:25;;;;;;;4.07;1.97;;;5.30;99.90;;;;;;4950789;28;20248;-73
2023/01/14 01:32:52;;;;;;;4.97;2.55;;;5.30;99.90;;;;;;4950950;28;20192;-74
2023/01/14 01:35:17;;;;;;;6.47;2.35;;;5.60;99.90;;;;;;4952847;28;20190;-73
2023/01/14 01:37:43;;;;;;;4.07;2.53;;;5.20;99.90;;;;;;4932891;28;20190;-74
2023/01/14 01:40:10;;;;;;;2.80;2.20;;;5.50;99.90;;;;;;4935257;29;20190;-74
2023/01/14 01:42:54;;;;;;;7.65;2.40;;;5.10;99.90;;;;;;4954021;28;20234;-74
2023/01/14 01:45:31;;;;;;;6.78;2.80;;;5.50;99.90;;;;;;4937266;29;20224;-74
2023/01/14 01:48:05;;;;;;;11.88;2.40;;;5.40;99.90;;;;;;4952546;28;20226;-75
2023/01/14 01:50:31;;;;;;;7.32;2.65;;;5.00;99.90;;;;;;4940991;28;20217;-74
2023/01/14 01:52:58;;;;;;;6.82;2.35;;;5.00;99.90;;;;;;4954451;28;20221;-74
2023/01/14 01:55:24;;;;;;;3.60;1.80;;;5.30;99.90;;;;;;4954418;28;20780;-74
2023/01/14 01:57:55;;;;;;;4.40;2.60;;;5.00;99.90;;;;;;4955274;28;20191;-74
2023/01/14 02:00:23;;;;;;;9.35;2.15;;;5.10;99.90;;;;;;4953886;28;20455;-75
2023/01/14 02:02:51;;;;;;;4.80;2.75;;;5.00;99.90;;;;;;4956802;28;20179;-74
2023/01/14 02:05:16;;;;;;;3.55;2.30;;;5.40;99.90;;;;;;4954959;28;20210;-75
2023/01/14 02:07:43;;;;;;;4.40;2.30;;;5.10;99.90;;;;;;4953163;28;20229;-75
2023/01/14 02:10:10;;;;;;;2.70;1.88;;;5.10;99.90;;;;;;4939528;28;20190;-74
2023/01/14 02:12:58;;;;;;;3.88;2.13;;;4.90;99.90;;;;;;4954991;28;20187;-74
2023/01/14 02:15:37;;;;;;;8.57;2.10;;;5.00;99.90;;;;;;4934940;29;20189;-74
2023/01/14 02:18:20;;;;;;;6.43;2.30;;;5.00;99.90;;;;;;4936028;29;20970;-74
2023/01/14 02:20:52;;;;;;;3.55;2.10;;;5.30;99.90;;;;;;4953092;28;20248;-75
2023/01/14 02:23:37;;;;;;;3.88;2.65;;;4.90;99.90;;;;;;4954700;28;20670;-75
2023/01/14 02:26:17;;;;;;;4.45;1.80;;;4.90;99.90;;;;;;4956488;28;20200;-74
2023/01/14 02:29:04;;;;;;;6.15;2.15;;;5.00;99.90;;;;;;4936616;29;20700;-74
2023/01/14 02:32:00;;;;;;;2.40;1.85;;;4.90;99.90;;;;;;4951072;28;20191;-74
2023/01/14 02:35:04;;;;;;;4.90;1.95;;;4.80;99.90;;;;;;4918406;28;21050;-74
2023/01/14 02:37:52;;;;;;;4.80;1.65;;;5.00;99.90;;;;;;4950353;28;20225;-75
2023/01/14 02:40:36;;;;;;;4.70;1.88;;;5.00;99.90;;;;;;4952609;28;20299;-76
2023/01/14 02:46:29;;;;;;;6.07;2.30;;;5.10;99.90;;;;;;4950818;28;20210;-74
2023/01/14 02:48:56;;;;;;;3.83;1.70;;;5.10;99.90;;;;;;4953527;28;20196;-74
2023/01/14 02:51:23;;;;;;;4.43;2.03;;;5.20;99.90;;;;;;4954685;28;20623;-74
2023/01/14 02:53:48;;;;;;;2.33;1.90;;;4.80;99.90;;;;;;4934367;28;20702;-74
2023/01/14 02:56:14;;;;;;;3.50;1.80;;;5.00;99.90;;;;;;4953697;28;20420;-74
2023/01/14 02:58:55;;;;;;;4.20;2.23;;;5.00;99.90;;;;;;4954125;28;20220;-73
2023/01/14 03:01:46;;;;;;;3.58;1.70;;;4.70;99.90;;;;;;4954054;28;20647;-72
2023/01/14 03:04:23;;;;;;;4.70;1.55;;;5.00;99.90;;;;;;4951092;28;20232;-74
2023/01/14 03:07:19;;;;;;;2.40;1.63;;;5.20;99.90;;;;;;4954729;28;20233;-73
2023/01/14 03:10:02;;;;;;;2.33;1.52;;;5.10;99.90;;;;;;4948420;28;20236;-73
2023/01/14 03:12:44;;;;;;;2.90;1.80;;;5.20;99.90;;;;;;4953291;28;20196;-73
2023/01/14 03:15:22;;;;;;;5.85;3.03;;;4.60;99.90;;;;;;4949929;28;20196;-73
2023/01/14 03:17:52;;;;;;;6.70;2.10;;;4.90;99.90;;;;;;4952732;28;20682;-73
2023/01/14 03:20:26;;;;;;;7.88;2.15;;;5.10;99.90;;;;;;4953420;28;20196;-73
2023/01/14 03:22:55;;;;;;;2.75;1.90;;;5.20;99.90;;;;;;4951491;28;20186;-73
2023/01/14 03:25:23;;;;;;;2.70;1.92;;;5.10;99.90;;;;;;4952134;28;20278;-73
2023/01/14 03:27:50;;;;;;;6.20;1.80;;;5.10;99.90;;;;;;4953194;28;20206;-73
2023/01/14 03:30:26;;;;;;;6.05;1.80;;;5.50;99.90;;;;;;4932503;28;20183;-73
2023/01/14 03:32:58;;;;;;;2.95;1.67;;;5.20;99.90;;;;;;4953220;28;20194;-74
2023/01/14 03:35:39;;;;;;;4.47;1.25;;;5.10;99.90;;;;;;4953426;28;20195;-75
2023/01/14 03:38:15;;;;;;;2.10;1.40;;;5.10;99.90;;;;;;4947805;28;20194;-74
2023/01/14 03:40:42;;;;;;;4.53;2.05;;;5.60;99.90;;;;;;4951812;28;20187;-74
2023/01/14 03:43:19;;;;;;;4.22;1.30;;;5.50;99.90;;;;;;4954259;28;20203;-74
2023/01/14 03:45:45;;;;;;;2.75;1.42;;;5.60;99.90;;;;;;4951001;28;20188;-73
2023/01/14 03:48:12;;;;;;;3.45;1.20;;;5.30;99.90;;;;;;4955669;28;20178;-73
2023/01/14 03:50:54;;;;;;;2.55;1.10;;;5.50;99.90;;;;;;4934036;29;20218;-74
2023/01/14 03:53:47;;;;;;;4.13;1.50;;;5.60;99.90;;;;;;4950514;28;20222;-74
2023/01/14 03:56:24;;;;;;;2.42;1.20;;;5.50;99.90;;;;;;4951026;28;20230;-74
2023/01/14 03:59:02;;;;;;;2.15;1.63;;;5.60;99.90;;;;;;4933595;28;20650;-74
2023/01/14 04:01:34;;;;;;;6.38;1.73;;;5.50;99.90;;;;;;4952835;28;20237;-73
2023/01/14 04:04:01;;;;;;;6.45;1.45;;;5.60;99.90;;;;;;4953671;28;20646;-73
2023/01/14 04:06:26;;;;;;;1.50;1.08;;;5.60;99.90;;;;;;4949030;28;21850;-73
2023/01/14 04:08:52;;;;;;;3.33;1.97;;;5.80;99.90;;;;;;4936759;28;20177;-74
2023/01/14 04:11:17;;;;;;;2.20;1.40;;;5.80;99.90;;;;;;4953395;28;20199;-74
2023/01/14 04:16:27;;;;;;;3.08;1.42;;;5.50;99.90;;;;;;4949896;28;20223;-74
2023/01/14 04:18:53;;;;;;;3.20;1.63;;;5.20;99.90;;;;;;4935921;28;20636;-74
2023/01/14 04:21:18;;;;;;;3.73;1.57;;;5.10;99.90;;;;;;4936088;28;20184;-73
2023/01/14 04:23:44;;;;;;;3.00;1.63;;;5.60;99.90;;;;;;4949503;28;20246;-73
2023/01/14 04:26:09;;;;;;;6.00;1.40;;;5.70;99.90;;;;;;4950616;28;20271;-73
2023/01/14 04:28:35;;;;;;;5.70;2.17;;;5.70;99.90;;;;;;4955340;28;20652;-74
2023/01/14 04:31:00;;;;;;;3.47;1.57;;;5.90;99.90;;;;;;4951522;28;20212;-74
2023/01/14 04:33:26;;;;;;;2.30;1.20;;;5.80;99.90;;;;;;4951234;28;20268;-75
2023/01/14 04:35:51;;;;;;;2.03;1.20;;;5.70;99.90;;;;;;4953021;28;20348;-74
2023/01/14 04:38:21;;;;;;;4.43;1.60;;;5.80;99.90;;;;;;4949848;28;20201;-75
2023/01/14 04:40:51;;;;;;;4.63;1.20;;;6.20;99.90;;;;;;4950475;28;20196;-74
2023/01/14 04:43:18;;;;;;;4.93;1.92;;;5.80;99.90;;;;;;4946397;28;20598;-74
2023/01/14 04:45:43;;;;;;;3.95;1.58;;;5.80;99.90;;;;;;4945219;28;20193;-75
2023/01/14 04:48:09;;;;;;;3.40;1.50;;;5.70;99.90;;;;;;4939609;28;20220;-75
2023/01/14 04:50:41;;;;;;;3.05;1.48;;;5.60;99.90;;;;;;4936233;28;20310;-76
2023/01/14 04:53:22;;;;;;;3.15;1.83;;;6.00;99.90;;;;;;4942419;28;20698;-76
2023/01/14 04:55:51;;;;;;;3.13;1.40;;;5.40;99.90;;;;;;4947853;28;20255;-77
2023/01/14 04:58:17;;;;;;;3.47;1.95;;;5.80;99.90;;;;;;4939065;28;20201;-76
2023/01/14 05:00:44;;;;;;;2.95;1.35;;;5.70;99.90;;;;;;4938168;28;20224;-77
2023/01/14 05:03:13;;;;;;;2.15;1.30;;;5.50;99.90;;;;;;4948465;28;20303;-77
2023/01/14 05:05:39;;;;;;;3.33;1.65;;;5.50;99.90;;;;;;4948269;28;20670;-78
2023/01/14 05:08:07;;;;;;;2.17;1.50;;;5.70;99.90;;;;;;4944999;28;20270;-78
2023/01/14 05:10:33;;;;;;;3.72;1.50;;;6.00;99.90;;;;;;4936240;28;20186;-76
2023/01/14 05:13:00;;;;;;;3.50;1.48;;;5.40;99.90;;;;;;4949403;28;20204;-77
2023/01/14 05:15:40;;;;;;;2.60;1.33;;;5.40;99.90;;;;;;4949256;28;20655;-77
2023/01/14 05:18:07;;;;;;;2.80;1.35;;;5.60;99.90;;;;;;4956475;28;21730;-78
2023/01/14 05:20:33;;;;;;;3.15;1.50;;;5.50;99.90;;;;;;4950333;28;20290;-77
2023/01/14 05:23:01;;;;;;;2.00;1.33;;;5.40;99.90;;;;;;4930403;28;20272;-77
2023/01/14 05:25:29;;;;;;;3.33;1.38;;;5.50;99.90;;;;;;4951374;28;20442;-80
2023/01/14 05:27:59;;;;;;;5.10;1.55;;;5.40;99.90;;;;;;4931460;29;20298;-77
2023/01/14 05:30:24;;;;;;;4.32;1.70;;;5.80;99.90;;;;;;4951743;28;20223;-76
2023/01/14 05:32:50;;;;;;;3.57;1.50;;;5.30;99.90;;;;;;4936180;29;20209;-77
2023/01/14 05:35:17;;;;;;;3.80;1.67;;;5.30;99.90;;;;;;4946995;28;20457;-77
2023/01/14 05:37:42;;;;;;;3.45;1.65;;;5.30;99.90;;;;;;4948142;28;20207;-77
2023/01/14 05:40:09;;;;;;;7.27;1.63;;;5.20;99.90;;;;;;4955160;28;20179;-77
2023/01/14 05:48:11;;;;;;;4.85;2.03;;;5.20;99.90;;;;;;5078202;28;20584;-62
2023/01/14 05:50:37;;;;;;;4.60;1.85;;;5.20;99.90;;;;;;5059897;28;20205;-64
2023/01/14 05:53:04;;;;;;;3.63;1.48;;;5.00;99.90;;;;;;5062578;28;20192;-62
2023/01/14 05:55:30;;;;;;;3.47;2.20;;;5.20;99.90;;;;;;5058201;28;20222;-61
2023/01/14 05:58:00;;;;;;;4.03;2.10;;;5.20;99.90;;;;;;5064533;28;20225;-61
2023/01/14 06:06:22;;;;;;;2.95;1.70;;;5.10;99.90;;;;;;5064257;28;20218;-63
2023/01/14 06:08:59;;;;;;;3.75;2.05;;;4.90;99.90;;;;;;5063619;28;20219;-62
2023/01/14 06:11:26;;;;;;;2.58;1.60;;;5.00;99.90;;;;;;5061467;28;20201;-63
2023/01/14 06:13:56;;;;;;;4.93;1.75;;;4.40;99.90;;;;;;5059892;28;20233;-62
2023/01/14 06:16:22;;;;;;;3.55;1.90;;;5.20;99.90;;;;;;5056150;28;20298;-62
2023/01/14 06:18:48;;;;;;;3.90;2.03;;;4.90;99.90;;;;;;5057473;28;20187;-64
2023/01/14 06:21:17;;;;;;;3.03;1.93;;;5.10;99.90;;;;;;5056962;28;20236;-65
2023/01/14 06:23:43;;;;;;;6.22;3.08;;;5.10;99.90;;;;;;5058816;28;20662;-63
2023/01/14 06:26:11;;;;;;;5.93;2.05;;;5.00;99.90;;;;;;5056302;28;20226;-62
2023/01/14 06:28:38;;;;;;;4.75;2.22;;;5.10;99.90;;;;;;5061030;28;20192;-66
2023/01/14 06:31:16;;;;;;;4.03;1.80;;;5.20;99.90;;;;;;5056013;28;20243;-61
2023/01/14 06:33:41;;;;;;;5.25;1.63;;;4.50;99.90;;;;;;5056218;28;20299;-62
2023/01/14 06:36:08;;;;;;;2.10;1.33;;;4.30;99.90;;;;;;5059135;28;20563;-61
2023/01/14 06:38:34;;;;;;;3.05;1.92;;;5.10;99.90;;;;;;5057385;28;20195;-61
2023/01/14 06:41:02;;;;;;;3.97;1.83;;;5.30;99.90;;;;;;5057417;28;20651;-63
2023/01/14 06:43:28;;;;;;;6.20;1.90;;;5.10;99.90;;;;;;5054205;28;20711;-62
2023/01/14 06:45:55;;;;;;;1.52;1.00;;;5.20;99.90;;;;;;5059532;28;20293;-63
2023/01/14 06:48:21;;;;;;;2.83;1.00;;;5.00;99.90;;;;;;5059724;28;20260;-60
2023/01/14 06:50:47;;;;;;;10.00;3.80;;;4.50;99.90;;;;;;5058054;28;20193;-63
2023/01/14 06:53:12;;;;;;;10.33;4.93;;;5.60;99.90;;;;;;5060252;28;20681;-67
2023/01/14 06:55:38;;;;;;;5.13;3.87;;;5.00;99.90;;;;;;5051515;28;20281;-62
2023/01/14 06:58:03;;;;;;;12.43;2.77;;;5.20;99.90;;;;;;5053484;28;20271;-62
2023/01/14 07:00:29;;;;;;;13.13;5.33;;;5.30;99.90;;;;;;5045926;28;20188;-63
2023/01/14 07:02:55;;;;;;;2.88;1.27;;;5.10;99.90;;;;;;5045389;28;20441;-66
2023/01/14 07:05:21;;;;;;;5.20;2.03;;;5.30;99.90;;;;;;5043958;28;20233;-67
2023/01/14 07:07:48;;;;;;;4.32;1.50;;;5.60;99.90;;;;;;5040696;28;20311;-67
2023/01/14 07:10:16;;;;;;;3.05;1.30;;;5.80;99.90;;;;;;5040732;28;20268;-66
2023/01/14 07:12:49;;;;;;;3.20;1.35;;;5.80;99.90;;;;;;5042093;28;20204;-64
2023/01/14 07:15:17;;;;;;;3.50;1.25;;;5.80;99.90;;;;;;5041983;28;20205;-63
2023/01/14 07:17:46;;;;;;;4.15;1.63;;;5.80;99.90;;;;;;5042720;28;20636;-63
2023/01/14 07:20:12;;;;;;;2.70;1.30;;;5.40;99.90;;;;;;5041947;28;20339;-65
2023/01/14 07:22:38;;;;;;;2.33;1.25;;;6.10;99.90;;;;;;5045698;28;20185;-63
2023/01/14 07:25:05;;;;;;;5.37;1.60;;;5.60;99.90;;;;;;5043179;28;20692;-64
2023/01/14 07:27:31;;;;;;;3.95;1.85;;;6.10;99.90;;;;;;5042337;28;20201;-64
2023/01/14 07:29:57;;;;;;;5.15;1.85;;;6.20;99.90;;;;;;5043751;28;20194;-63
2023/01/14 07:32:23;;;;;;;2.83;1.43;;;6.40;99.90;;;;;;5043575;28;20190;-64
2023/01/14 07:34:49;;;;;;;3.27;1.73;;;6.50;99.90;;;;;;5047686;28;20488;-64
2023/01/14 07:37:15;;;;;;;5.53;1.43;;;6.60;99.90;;;;;;5046496;28;20869;-64
2023/01/14 07:39:40;;;;;;;6.10;2.30;;;6.40;99.90;;;;;;5045112;28;20439;-63
2023/01/14 07:42:06;;;;;;;1.43;1.30;;;6.70;99.90;;;;;;5043150;28;20186;-64
2023/01/14 07:44:31;;;;;;;6.40;2.00;;;6.90;99.90;;;;;;5044677;28;20205;-64
2023/01/14 07:46:57;;;;;;;3.53;1.23;;;6.90;99.90;;;;;;5043431;28;20215;-65
2023/01/14 07:49:24;;;;;;;4.30;1.70;;;7.00;99.90;;;;;;5046925;28;20187;-65
2023/01/14 07:51:51;;;;;;;4.95;1.48;;;6.20;99.90;;;;;;5049497;28;20428;-65
2023/01/14 07:54:17;;;;;;;1.92;0.95;;;6.80;99.90;;;;;;5039997;28;20177;-65
2023/01/14 07:56:43;;;;;;;6.20;1.75;;;6.80;99.90;;;;;;5047633;28;20201;-63
2023/01/14 07:59:09;;;;;;;3.63;2.23;;;6.90;99.90;;;;;;5044144;28;20240;-65
2023/01/14 08:01:35;;;;;;;4.17;1.50;;;7.20;99.90;;;;;;5047914;28;20504;-65
2023/01/14 08:04:01;;;;;;;2.40;1.33;;;7.30;99.90;;;;;;5043931;28;20540;-65
2023/01/14 08:06:28;;;;;;;3.33;1.47;;;7.20;99.90;;;;;;5047706;28;20718;-65
2023/01/14 08:08:53;;;;;;;3.65;2.03;;;7.10;99.90;;;;;;5043818;28;20207;-65
2023/01/14 08:11:19;;;;;;;2.17;1.30;;;7.40;99.90;;;;;;5045100;28;20186;-65
2023/01/14 08:13:44;;;;;;;7.53;2.03;;;7.50;99.90;;;;;;5045154;28;20186;-66
2023/01/14 08:16:10;;;;;;;4.57;2.07;;;7.40;99.90;;;;;;5045859;28;20212;-65
2023/01/14 08:18:36;;;;;;;5.60;1.60;;;7.30;99.90;;;;;;5050098;28;20276;-65
2023/01/14 08:21:05;;;;;;;2.58;1.60;;;7.80;99.90;;;;;;5051273;28;20182;-65
2023/01/14 08:23:34;;;;;;;3.10;1.83;;;7.90;99.90;;;;;;5046718;28;20209;-65
2023/01/14 08:26:04;;;;;;;4.20;1.95;;;7.80;99.90;;;;;;5049646;28;20286;-65
2023/01/14 08:28:30;;;;;;;5.57;2.13;;;8.10;99.90;;;;;;5048562;28;20196;-65
2023/01/14 08:31:11;;;;;;;3.28;1.83;;;7.90;99.90;;;;;;5041356;28;20870;-65
2023/01/14 08:33:37;;;;;;;3.42;1.98;;;7.90;99.90;;;;;;5047110;28;20192;-63
2023/01/14 08:36:06;;;;;;;4.93;1.98;;;8.20;99.90;;;;;;5039737;28;20740;-63
2023/01/14 08:38:37;;;;;;;2.08;1.85;;;8.00;99.90;;;;;;5039641;28;20276;-63
2023/01/14 08:41:14;;;;;;;4.82;2.10;;;8.10;99.90;;;;;;5046058;28;20762;-63
2023/01/14 08:43:40;;;;;;;4.00;2.40;;;8.30;99.90;;;;;;5041885;28;20213;-63
2023/01/14 08:46:07;;;;;;;6.85;2.38;;;8.20;99.90;;;;;;5049902;28;20243;-63
2023/01/14 08:48:33;;;;;;;4.15;1.80;;;8.50;99.90;;;;;;5044615;28;20563;-63
2023/01/14 08:51:01;;;;;;;4.32;1.55;;;8.30;99.90;;;;;;5047911;28;20255;-62
2023/01/14 08:53:30;;;;;;;3.85;2.20;;;8.20;99.90;;;;;;5041580;28;20186;-63
2023/01/14 08:55:59;;;;;;;7.32;2.80;;;8.20;99.90;;;;;;5039251;28;20725;-64
2023/01/14 08:58:26;;;;;;;4.53;1.40;;;8.30;99.90;;;;;;5045544;28;20552;-64
2023/01/14 09:01:02;;;;;;;3.65;1.73;;;8.70;99.90;;;;;;5043933;28;20183;-64
2023/01/14 09:03:30;;;;;;;2.72;1.52;;;8.40;99.90;;;;;;5043377;28;20189;-63
2023/01/14 09:06:00;;;;;;;5.43;3.03;;;8.80;99.90;;;;;;5046035;28;20202;-63
2023/01/14 09:17:21;;;;;;;3.67;1.48;;;9.00;99.90;;;;;;5043682;28;20327;-62
2023/01/14 09:19:51;;;;;;;3.72;1.70;;;8.90;99.90;;;;;;5046975;28;20246;-62
2023/01/14 09:22:20;;;;;;;4.15;1.70;;;9.20;99.90;;;;;;5040218;28;20197;-62
2023/01/14 09:24:46;;;;;;;4.82;1.45;;;9.00;99.90;;;;;;5041873;28;20650;-62
2023/01/14 09:27:11;;;;;;;3.25;1.60;;;9.00;99.90;;;;;;5047163;28;20620;-62
2023/01/14 09:29:37;;;;;;;4.27;1.60;;;9.10;99.90;;;;;;5043728;28;20417;-62
2023/01/14 09:32:03;;;;;;;5.20;2.63;;;9.20;99.90;;;;;;5040708;28;20183;-63
2023/01/14 09:34:28;;;;;;;2.60;1.10;;;9.20;99.90;;;;;;5045625;28;20194;-63
2023/01/14 09:36:54;;;;;;;3.13;1.90;;;9.10;99.90;;;;;;5037712;28;20513;-62
2023/01/14 09:39:20;;;;;;;2.40;1.20;;;9.20;99.90;;;;;;5042832;28;20186;-63
2023/01/14 09:41:54;;;;;;;3.33;1.50;;;9.30;99.90;;;;;;5043635;28;20429;-63
2023/01/14 09:44:21;;;;;;;8.65;1.90;;;9.30;99.90;;;;;;5040154;28;20190;-63
2023/01/14 09:46:47;;;;;;;2.75;1.65;;;9.30;99.90;;;;;;5040163;28;20209;-63
2023/01/14 09:49:17;;;;;;;2.23;1.93;;;9.50;99.90;;;;;;5042318;28;20182;-63
2023/01/14 09:51:54;;;;;;;2.42;1.70;;;9.50;99.90;;;;;;5041110;28;20438;-63
2023/01/14 09:54:51;;;;;;;5.50;1.50;;;9.60;99.90;;;;;;5042859;28;20536;-63
2023/01/14 09:57:28;;;;;;;3.17;1.88;;;9.50;99.90;;;;;;5040772;28;20223;-63
2023/01/14 10:00:04;;;;;;;2.83;1.30;;;9.60;99.90;;;;;;5042572;28;20174;-63
2023/01/14 10:02:47;;;;;;;3.05;1.50;;;9.60;99.90;;;;;;5046881;28;20183;-63
2023/01/14 10:05:18;;;;;;;3.10;1.60;;;9.70;99.90;;;;;;5040635;28;20238;-63
2023/01/14 10:07:44;;;;;;;3.78;1.77;;;10.20;99.90;;;;;;5041508;28;20207;-63
2023/01/14 10:10:29;;;;;;;2.67;1.60;;;9.80;99.90;;;;;;5039263;28;20677;-63
2023/01/14 10:12:56;;;;;;;3.60;1.00;;;10.10;99.90;;;;;;5041705;28;20458;-63
2023/01/14 10:15:32;;;;;;;2.22;1.30;;;10.10;99.90;;;;;;5038309;28;20222;-63
2023/01/14 10:18:19;;;;;;;1.20;1.05;;;10.00;99.90;;;;;;5047086;28;20195;-66
2023/01/14 10:21:01;;;;;;;5.43;1.70;;;10.60;99.90;;;;;;5043533;28;20186;-65
2023/01/14 10:23:37;;;;;;;1.35;1.17;;;10.30;99.90;;;;;;5039845;28;20190;-68
2023/01/14 10:26:15;;;;;;;2.35;1.25;;;10.50;99.90;;;;;;5045085;28;20211;-65
2023/01/14 10:28:42;;;;;;;2.90;1.10;;;10.70;99.90;;;;;;5046133;28;20171;-67
2023/01/14 10:31:16;;;;;;;3.92;1.30;;;10.60;99.90;;;;;;5046696;28;20214;-66
2023/01/14 10:33:41;;;;;;;2.60;1.52;;;10.70;99.90;;;;;;5048020;28;20314;-66
2023/01/14 10:36:16;;;;;;;2.40;1.30;;;10.50;99.90;;;;;;5045164;28;20284;-67
2023/01/14 10:38:42;;;;;;;2.47;1.30;;;10.60;99.90;;;;;;5046641;28;20280;-65
2023/01/14 10:41:10;;;;;;;2.50;1.00;;;10.80;99.90;;;;;;5048368;28;20213;-67
2023/01/14 10:43:41;;;;;;;1.17;1.08;;;10.60;99.90;;;;;;5048443;28;20836;-65
2023/01/14 10:46:13;;;;;;;3.08;1.65;;;10.90;99.90;;;;;;5045362;28;20215;-66
2023/01/14 10:48:50;;;;;;;2.90;1.25;;;10.90;99.90;;;;;;5049541;28;20193;-67
2023/01/14 10:51:37;;;;;;;2.50;1.35;;;10.60;99.90;;;;;;5036177;28;20185;-63
2023/01/14 10:54:09;;;;;;;2.38;1.00;;;10.70;99.90;;;;;;5041449;28;20212;-63
2023/01/14 10:56:36;;;;;;;1.60;1.20;;;10.90;99.90;;;;;;5033664;28;20186;-62
2023/01/14 10:59:01;;;;;;;3.17;1.27;;;11.10;99.90;;;;;;5044023;28;20184;-62
2023/01/14 11:01:27;;;;;;;2.97;1.33;;;11.20;99.90;;;;;;5041631;28;20667;-63
2023/01/14 11:03:53;;;;;;;1.10;0.90;;;10.90;99.90;;;;;;5044711;28;20211;-62
2023/01/14 11:06:18;;;;;;;1.47;0.97;;;11.00;99.90;;;;;;5045830;28;20219;-62
2023/01/14 11:08:47;;;;;;;1.20;0.97;;;10.90;99.90;;;;;;5041749;28;20569;-62
2023/01/14 11:11:24;;;;;;;2.72;1.20;;;11.00;99.90;;;;;;5037240;28;20189;-62
2023/01/14 11:13:53;;;;;;;0.90;0.90;;;11.00;99.90;;;;;;5043324;28;20661;-62
2023/01/14 11:16:21;;;;;;;2.53;1.30;;;10.90;99.90;;;;;;5042427;28;20213;-62
2023/01/14 11:19:10;;;;;;;1.67;1.20;;;10.30;99.90;;;;;;5042766;28;20192;-62
2023/01/14 11:21:41;;;;;;;3.17;1.52;;;10.70;99.90;;;;;;5039033;28;20199;-64
2023/01/14 11:24:28;;;;;;;1.23;0.93;;;10.90;99.90;;;;;;5041831;28;20217;-61
2023/01/14 11:27:05;;;;;;;2.05;1.35;;;11.10;99.90;;;;;;5041339;28;20223;-61
2023/01/14 11:29:35;;;;;;;2.08;1.15;;;11.10;99.90;;;;;;5042858;28;20188;-59
2023/01/14 11:32:09;;;;;;;2.25;1.15;;;11.40;99.90;;;;;;5039086;28;20210;-60
2023/01/14 11:35:09;;;;;;;3.83;1.25;;;11.10;99.90;;;;;;5046869;28;20207;-61
2023/01/14 11:37:53;;;;;;;3.58;1.20;;;11.10;99.90;;;;;;5031902;28;20250;-60
2023/01/14 11:43:21;;;;;;;1.65;0.93;;;11.20;99.90;;;;;;5049634;28;20206;-64
2023/01/14 11:45:47;;;;;;;1.75;1.33;;;11.30;99.90;;;;;;5040850;28;20206;-66
2023/01/14 11:48:28;;;;;;;2.70;1.67;;;11.40;99.90;;;;;;5039518;28;20215;-66
2023/01/14 11:51:02;;;;;;;1.58;0.90;;;11.10;99.90;;;;;;5038343;28;20841;-65
2023/01/14 11:53:52;;;;;;;1.50;1.10;;;11.30;99.90;;;;;;5042003;28;20220;-66
2023/01/14 11:56:26;;;;;;;1.05;1.00;;;11.30;99.90;;;;;;5044743;28;20208;-61
2023/01/14 11:58:52;;;;;;;1.63;1.02;;;11.20;99.90;;;;;;5045492;28;20685;-60
2023/01/14 12:01:30;;;;;;;1.57;1.00;;;11.10;99.90;;;;;;5045849;28;20297;-61
2023/01/14 12:03:59;;;;;;;3.03;1.85;;;11.30;99.90;;;;;;5047305;28;20200;-61
2023/01/14 12:06:30;;;;;;;2.55;1.15;;;11.30;99.90;;;;;;5046811;28;20215;-61
2023/01/14 12:09:00;;;;;;;3.13;1.02;;;11.20;99.90;;;;;;5039756;28;20175;-61
2023/01/14 12:11:34;;;;;;;1.33;0.90;;;11.40;99.90;;;;;;5044592;28;20631;-59
2023/01/14 12:16:59;;;;;;;4.45;2.25;;;11.40;99.90;;;;;;5047362;28;20186;-61
2023/01/14 12:19:30;;;;;;;1.80;1.38;;;11.30;99.90;;;;;;5040991;28;20269;-68
2023/01/14 12:22:15;;;;;;;1.90;1.20;;;11.40;99.90;;;;;;5042762;28;20184;-68
2023/01/14 12:24:51;;;;;;;2.42;1.20;;;11.30;99.90;;;;;;5040941;28;20269;-67
2023/01/14 12:27:42;;;;;;;1.88;0.88;;;11.20;99.90;;;;;;5044062;28;20206;-67
2023/01/14 12:30:25;;;;;;;2.10;0.98;;;11.30;99.90;;;;;;5032883;28;20183;-63
2023/01/14 12:32:57;;;;;;;1.45;0.90;;;11.20;99.90;;;;;;5044214;28;20229;-65
2023/01/14 12:35:25;;;;;;;1.30;0.85;;;10.80;99.90;;;;;;5039140;28;20216;-62
2023/01/14 12:38:02;;;;;;;1.10;1.00;;;11.10;99.90;;;;;;5039203;28;20223;-63
2023/01/14 12:46:13;;;;;;;1.48;1.10;;;11.20;99.90;;;;;;5041743;28;20288;-59
2023/01/14 12:48:39;;;;;;;1.92;1.10;;;11.30;99.90;;;;;;5043303;28;20199;-59
2023/01/14 12:51:05;;;;;;;1.92;1.10;;;11.10;99.90;;;;;;5043047;28;20193;-59
2023/01/14 12:53:50;;;;;;;2.30;1.23;;;11.20;99.90;;;;;;5040405;28;20182;-66
2023/01/14 12:56:25;;;;;;;3.90;2.00;;;11.10;99.90;;;;;;5036136;28;20271;-66
2023/01/14 12:58:56;;;;;;;1.13;0.95;;;11.30;99.90;;;;;;5042786;28;20188;-61
2023/01/14 13:01:24;;;;;;;2.55;1.10;;;11.10;99.90;;;;;;5033675;28;20183;-63
2023/01/14 13:04:14;;;;;;;4.57;1.38;;;11.30;99.90;;;;;;5044414;28;20179;-60
2023/01/14 13:06:43;;;;;;;2.15;1.42;;;11.10;99.90;;;;;;5039139;28;20203;-59
2023/01/14 13:09:23;;;;;;;1.52;1.05;;;11.40;99.90;;;;;;5036677;28;20674;-59
2023/01/14 13:11:52;;;;;;;1.38;1.27;;;11.10;99.70;;;;;;5042582;28;20243;-60
2023/01/14 13:14:26;;;;;;;1.33;1.00;;;11.20;99.90;;;;;;5046262;28;20558;-61
2023/01/14 13:16:59;;;;;;;2.30;1.10;;;10.90;99.90;;;;;;5042831;28;20182;-61
2023/01/14 13:19:24;;;;;;;2.25;1.05;;;11.00;99.90;;;;;;5044314;28;20242;-61
2023/01/14 13:22:00;;;;;;;1.83;1.00;;;11.10;99.70;;;;;;5045009;28;20188;-59
2023/01/14 13:24:26;;;;;;;3.92;1.25;;;11.20;99.70;;;;;;5044942;28;20254;-60
2023/01/14 13:26:54;;;;;;;2.20;1.40;;;11.20;99.70;;;;;;5045816;28;20282;-59
2023/01/14 13:29:23;;;;;;;2.83;1.25;;;11.20;99.70;;;;;;5042834;28;20195;-58
2023/01/14 13:31:49;;;;;;;1.00;0.90;;;11.30;99.60;;;;;;5040899;28;20194;-59
2023/01/14 13:34:21;;;;;;;1.47;1.23;;;11.10;99.20;;;;;;5045383;28;20187;-60
2023/01/14 13:37:04;;;;;;;3.60;1.60;;;11.30;99.40;;;;;;5047012;28;20198;-60
2023/01/14 13:39:32;;;;;;;3.25;1.52;;;11.30;99.20;;;;;;5040407;28;20654;-60
2023/01/14 13:42:13;;;;;;;2.63;1.55;;;11.10;99.10;;;;;;5048967;28;20187;-59
2023/01/14 13:44:45;;;;;;;1.80;1.33;;;11.40;99.40;;;;;;5040953;28;20211;-62
2023/01/14 13:47:38;;;;;;;2.90;1.20;;;11.20;99.20;;;;;;5043436;28;20406;-60
2023/01/14 13:50:07;;;;;;;10.77;8.30;;;11.20;99.40;;;;;;5040743;28;20326;-61
2023/01/14 13:52:46;;;;;;;1.70;1.60;;;11.10;99.70;;;;;;5043714;28;20244;-61